LFOT/TUF METAR and TAF weather

Enter ICAO airport designator
Station Type Date Time Source
LFOT METAR 2020/04/05 16:30 UTC NOAA

LFOT 051630Z AUTO 16008KT 120V190 CAVOK 22/03 Q1013 NOSIG


Station Type Date Time Source
LFOT Decoded METAR 2020/04/05 16:30 UTC NOAA

Tours, France (LFOT) 47-27N 000-43E 112M
Apr 05, 2020 - 12:30 PM EDT / 2020.04.05 1630 UTC
Wind: from the SSE (160 degrees) at 9 MPH (8 KT) (direction variable):0
Visibility: greater than 7 mile(s):0
Temperature: 71 F (22 C)
Dew Point: 37 F (3 C)
Relative Humidity: 28%
Pressure (altimeter): 29.91 in. Hg (1013 hPa)
ob: LFOT 051630Z AUTO 16008KT 120V190 CAVOK 22/03 Q1013 NOSIG
cycle: 16

Station Type Date Time Source
LFOT TAF 2020/04/05 12:47 UTC NOAA

TAF LFOT 051100Z 0512/0612 14010KT CAVOK
BECMG 0607/0609 20010KT BKN013
TEMPO 0609/0612 2000 RA BKN005

Example: see airport list